Time;durP1;ratioP1;P1;durP2;ratioP2;P2;SDS_P1;SDS_P2;PMS_P1;PMS_P2;Temp;Humidity;BMP_temperature;BMP_pressure;BME280_temperature;BME280_humidity;BME280_pressure;Samples;Min_cycle;Max_cycle;Signal;HPM_P1;HPM_P2
2021/07/16 00:01:35;;;;;;;;;14.75;12.50;;;;;;;;8775126;40;10782;-58
2021/07/16 00:07:38;;;;;;;;;13.50;13.00;;;;;;;;8774873;40;10677;-57
2021/07/16 00:13:40;;;;;;;;;23.00;19.25;;;;;;;;8775500;40;10757;-58
2021/07/16 00:19:42;;;;;;;;;15.25;15.00;;;;;;;;8774050;40;10645;-57
2021/07/16 00:25:44;;;;;;;;;21.75;19.50;;;;;;;;8773512;40;11436;-58
2021/07/16 00:31:47;;;;;;;;;17.25;16.25;;;;;;;;8774585;40;10813;-57
2021/07/16 00:37:49;;;;;;;;;18.75;15.75;;;;;;;;8772621;40;10597;-57
2021/07/16 00:43:51;;;;;;;;;15.50;15.25;;;;;;;;8775385;40;11630;-58
2021/07/16 00:49:53;;;;;;;;;5.50;5.50;;;;;;;;8773470;40;10791;-58
2021/07/16 00:55:55;;;;;;;;;21.50;19.00;;;;;;;;8772872;40;10872;-58
2021/07/16 01:01:59;;;;;;;;;18.00;16.00;;;;;;;;8773772;40;12257;-57
2021/07/16 01:08:03;;;;;;;;;18.25;18.00;;;;;;;;8773971;40;11516;-57
2021/07/16 01:14:05;;;;;;;;;18.75;18.25;;;;;;;;8774428;40;10909;-58
2021/07/16 01:20:10;;;;;;;;;20.50;17.75;;;;;;;;8772998;40;10993;-58
2021/07/16 01:26:12;;;;;;;;;16.50;16.50;;;;;;;;8774113;40;10842;-58
2021/07/16 01:32:15;;;;;;;;;19.33;18.33;;;;;;;;8773744;40;10383;-57
2021/07/16 01:38:17;;;;;;;;;15.00;14.00;;;;;;;;8772611;40;10708;-58
2021/07/16 01:44:19;;;;;;;;;20.67;20.00;;;;;;;;8773306;40;10311;-57
2021/07/16 01:50:22;;;;;;;;;23.67;21.67;;;;;;;;8772647;40;10646;-57
2021/07/16 01:56:24;;;;;;;;;19.00;17.67;;;;;;;;8772585;40;10794;-58
2021/07/16 02:02:26;;;;;;;;;20.75;19.50;;;;;;;;8773769;40;11075;-57
2021/07/16 02:08:28;;;;;;;;;21.75;19.75;;;;;;;;8772050;40;11112;-57
2021/07/16 02:14:30;;;;;;;;;19.67;19.33;;;;;;;;8772833;40;9979;-58
2021/07/16 02:20:33;;;;;;;;;26.00;24.00;;;;;;;;8770875;40;10591;-57
2021/07/16 02:26:37;;;;;;;;;22.33;22.00;;;;;;;;8772282;40;10509;-56
2021/07/16 02:32:39;;;;;;;;;24.33;21.00;;;;;;;;8772640;40;10561;-57
2021/07/16 02:38:41;;;;;;;;;29.00;27.67;;;;;;;;8771799;40;10084;-57
2021/07/16 02:44:44;;;;;;;;;25.67;25.00;;;;;;;;8772292;40;10283;-57
2021/07/16 02:50:47;;;;;;;;;24.00;23.00;;;;;;;;8772621;40;10688;-58
2021/07/16 02:56:49;;;;;;;;;25.67;23.33;;;;;;;;8772457;40;10138;-58
2021/07/16 03:02:51;;;;;;;;;28.67;28.33;;;;;;;;8772388;40;10226;-58
2021/07/16 03:08:54;;;;;;;;;24.33;23.67;;;;;;;;8771585;40;10242;-58
2021/07/16 03:14:56;;;;;;;;;31.67;25.33;;;;;;;;8771761;40;10472;-58
2021/07/16 03:20:57;;;;;;;;;28.00;25.00;;;;;;;;8770975;40;10555;-58
2021/07/16 03:27:00;;;;;;;;;22.33;22.00;;;;;;;;8771471;40;10627;-58
2021/07/16 03:33:02;;;;;;;;;24.67;23.67;;;;;;;;8775692;40;10119;-59
2021/07/16 03:39:05;;;;;;;;;30.00;26.33;;;;;;;;8774040;40;10119;-57
2021/07/16 03:45:12;;;;;;;;;34.33;30.33;;;;;;;;8776104;40;10230;-58
2021/07/16 03:51:14;;;;;;;;;29.67;27.67;;;;;;;;8775534;40;10528;-58
2021/07/16 03:57:16;;;;;;;;;32.33;31.33;;;;;;;;8775192;40;10074;-57
2021/07/16 04:03:20;;;;;;;;;29.25;29.25;;;;;;;;9812591;23;10989;-66
2021/07/16 04:09:30;;;;;;;;;33.00;30.75;;;;;;;;8777443;40;11020;-67
2021/07/16 04:15:33;;;;;;;;;30.00;28.67;;;;;;;;8779835;40;10497;-68
2021/07/16 04:21:35;;;;;;;;;26.33;26.33;;;;;;;;8777471;40;10686;-66
2021/07/16 04:27:37;;;;;;;;;32.50;30.00;;;;;;;;8778711;40;11414;-67
2021/07/16 04:33:39;;;;;;;;;37.00;32.25;;;;;;;;8777925;40;11291;-67
2021/07/16 04:39:40;;;;;;;;;28.25;28.00;;;;;;;;8776849;40;10970;-66
2021/07/16 04:45:42;;;;;;;;;37.00;30.33;;;;;;;;8778797;40;10672;-66
2021/07/16 04:51:44;;;;;;;;;32.33;31.00;;;;;;;;8777923;40;10684;-67
2021/07/16 04:57:46;;;;;;;;;36.75;34.00;;;;;;;;8777565;40;11565;-67
2021/07/16 05:03:49;;;;;;;;;30.25;29.75;;;;;;;;8777424;40;10976;-67
2021/07/16 05:09:51;;;;;;;;;35.50;33.50;;;;;;;;8774510;40;11107;-67
2021/07/16 05:15:53;;;;;;;;;30.00;27.50;;;;;;;;8742742;40;11006;-67
2021/07/16 05:21:57;;;;;;;;;29.25;27.00;;;;;;;;8751386;40;10823;-67
2021/07/16 05:28:00;;;;;;;;;32.00;27.50;;;;;;;;8756315;40;10771;-64
2021/07/16 05:34:05;;;;;;;;;32.50;28.25;;;;;;;;8753404;40;10732;-63
2021/07/16 05:40:08;;;;;;;;;29.50;28.00;;;;;;;;8748130;40;10723;-65
2021/07/16 05:46:09;;;;;;;;;28.25;28.25;;;;;;;;8749777;40;11595;-63
2021/07/16 05:52:12;;;;;;;;;26.50;23.50;;;;;;;;8738710;40;11188;-64
2021/07/16 05:58:14;;;;;;;;;24.25;21.75;;;;;;;;8741708;40;10620;-64
2021/07/16 06:04:19;;;;;;;;;37.25;33.50;;;;;;;;8751532;40;10689;-65
2021/07/16 06:10:21;;;;;;;;;31.25;27.00;;;;;;;;8746814;40;10654;-64
2021/07/16 06:16:23;;;;;;;;;27.75;27.25;;;;;;;;8740223;40;10860;-65
2021/07/16 06:22:25;;;;;;;;;30.25;27.50;;;;;;;;8737702;40;10720;-65
2021/07/16 06:28:27;;;;;;;;;25.25;24.25;;;;;;;;8743548;40;11160;-64
2021/07/16 06:34:29;;;;;;;;;26.50;26.50;;;;;;;;8743332;40;10673;-64
2021/07/16 06:40:32;;;;;;;;;19.00;17.00;;;;;;;;8743091;40;10662;-66
2021/07/16 06:46:34;;;;;;;;;30.25;26.25;;;;;;;;8735280;40;10744;-65
2021/07/16 06:52:37;;;;;;;;;27.50;26.00;;;;;;;;8730175;40;10892;-66
2021/07/16 06:58:38;;;;;;;;;27.00;24.00;;;;;;;;8740867;40;10778;-62
2021/07/16 07:04:41;;;;;;;;;25.50;22.50;;;;;;;;8726731;40;10560;-64
2021/07/16 07:10:43;;;;;;;;;25.25;23.50;;;;;;;;8746425;40;10640;-61
2021/07/16 07:16:45;;;;;;;;;27.25;26.00;;;;;;;;8744967;40;10630;-62
2021/07/16 07:22:47;;;;;;;;;22.25;21.00;;;;;;;;8750538;40;10580;-61
2021/07/16 07:28:49;;;;;;;;;25.50;20.75;;;;;;;;8741899;40;10675;-61
2021/07/16 07:34:52;;;;;;;;;25.50;23.75;;;;;;;;8744358;40;10688;-61
2021/07/16 07:40:54;;;;;;;;;24.25;23.50;;;;;;;;8730115;40;10658;-61
2021/07/16 07:46:56;;;;;;;;;23.75;23.25;;;;;;;;8746622;40;10728;-61
2021/07/16 07:53:00;;;;;;;;;27.00;20.50;;;;;;;;8746391;40;10640;-61
2021/07/16 07:59:05;;;;;;;;;25.50;22.50;;;;;;;;8746201;40;11600;-61
2021/07/16 08:05:08;;;;;;;;;26.00;21.75;;;;;;;;8748025;40;10620;-62
2021/07/16 08:11:10;;;;;;;;;23.75;19.00;;;;;;;;8735295;40;11132;-62
2021/07/16 08:17:12;;;;;;;;;24.50;23.00;;;;;;;;8740643;40;11089;-61
2021/07/16 08:23:15;;;;;;;;;16.25;15.75;;;;;;;;8730777;40;10733;-62
2021/07/16 08:29:17;;;;;;;;;23.75;23.25;;;;;;;;8736165;40;10680;-61
2021/07/16 08:35:19;;;;;;;;;22.50;21.00;;;;;;;;8746110;40;10637;-61
2021/07/16 08:41:21;;;;;;;;;13.25;12.50;;;;;;;;8743008;40;10641;-61
2021/07/16 08:47:23;;;;;;;;;18.25;18.25;;;;;;;;8737976;40;10691;-62
2021/07/16 08:53:27;;;;;;;;;23.50;22.25;;;;;;;;8745050;40;10693;-61
2021/07/16 08:59:29;;;;;;;;;25.50;23.00;;;;;;;;8740755;40;11232;-61
2021/07/16 09:05:38;;;;;;;;;25.00;21.75;;;;;;;;8737057;40;10726;-61
2021/07/16 09:11:47;;;;;;;;;23.25;20.50;;;;;;;;8740352;40;10602;-61
2021/07/16 09:17:52;;;;;;;;;21.00;20.75;;;;;;;;8729161;40;10515;-61
2021/07/16 09:24:02;;;;;;;;;23.25;21.00;;;;;;;;8732145;40;10636;-64
2021/07/16 09:30:15;;;;;;;;;20.25;19.50;;;;;;;;8719261;40;10620;-64
2021/07/16 09:36:30;;;;;;;;;19.75;19.75;;;;;;;;8739529;40;11034;-67
2021/07/16 09:42:37;;;;;;;;;10.75;10.25;;;;;;;;8753017;40;10817;-65
2021/07/16 09:48:41;;;;;;;;;23.25;22.00;;;;;;;;8740592;40;10675;-64
2021/07/16 09:55:05;;;;;;;;;13.75;13.75;;;;;;;;8745893;40;10565;-66
2021/07/16 10:01:08;;;;;;;;;17.50;16.00;;;;;;;;8747243;40;11123;-66
2021/07/16 10:07:11;;;;;;;;;19.25;19.25;;;;;;;;8743234;40;10715;-65
2021/07/16 10:13:14;;;;;;;;;20.25;20.00;;;;;;;;8735235;40;10649;-66
2021/07/16 10:19:17;;;;;;;;;19.75;17.75;;;;;;;;8735395;40;10650;-64
2021/07/16 10:25:21;;;;;;;;;19.25;19.00;;;;;;;;8736866;40;10909;-64
2021/07/16 10:31:39;;;;;;;;;13.50;13.00;;;;;;;;8733211;40;10559;-64
2021/07/16 10:37:41;;;;;;;;;12.75;12.75;;;;;;;;8743219;40;10823;-65
2021/07/16 10:43:43;;;;;;;;;16.50;15.25;;;;;;;;8746035;40;10632;-65
2021/07/16 10:49:53;;;;;;;;;16.00;15.00;;;;;;;;8737943;40;10624;-65
2021/07/16 10:55:56;;;;;;;;;16.00;13.50;;;;;;;;8748987;40;10531;-65
2021/07/16 11:01:58;;;;;;;;;14.75;13.25;;;;;;;;8754177;40;11179;-65
2021/07/16 11:08:02;;;;;;;;;15.25;13.00;;;;;;;;8743553;40;10794;-65
2021/07/16 11:14:05;;;;;;;;;16.00;14.50;;;;;;;;8746667;40;10571;-64
2021/07/16 11:20:20;;;;;;;;;11.50;10.00;;;;;;;;8748158;40;10818;-65
2021/07/16 11:26:22;;;;;;;;;17.75;16.50;;;;;;;;8726161;40;10658;-64
2021/07/16 11:32:29;;;;;;;;;15.25;14.00;;;;;;;;8742988;40;10640;-64
2021/07/16 11:38:31;;;;;;;;;20.25;20.25;;;;;;;;8730143;40;10582;-63
2021/07/16 11:44:42;;;;;;;;;16.75;16.75;;;;;;;;8773729;40;11126;-63
2021/07/16 11:50:48;;;;;;;;;15.00;11.50;;;;;;;;8730085;40;10608;-64
2021/07/16 11:56:55;;;;;;;;;18.25;18.25;;;;;;;;8738735;40;10676;-65
2021/07/16 12:03:15;;;;;;;;;16.25;14.75;;;;;;;;8751449;40;10628;-64
2021/07/16 12:09:48;;;;;;;;;15.50;13.50;;;;;;;;8727291;40;10571;-63
2021/07/16 12:16:09;;;;;;;;;22.50;19.50;;;;;;;;8752974;40;10618;-62
2021/07/16 12:22:13;;;;;;;;;20.00;18.75;;;;;;;;8748120;40;10615;-64
2021/07/16 12:28:20;;;;;;;;;14.75;12.00;;;;;;;;8727540;40;10611;-64
2021/07/16 12:34:25;;;;;;;;;10.00;9.00;;;;;;;;8736327;40;10460;-65
2021/07/16 12:40:28;;;;;;;;;15.50;15.50;;;;;;;;8746080;40;10640;-63
2021/07/16 12:46:30;;;;;;;;;17.25;17.25;;;;;;;;8741094;40;10649;-63
2021/07/16 12:52:32;;;;;;;;;16.75;16.00;;;;;;;;8750026;40;10605;-64
2021/07/16 12:58:36;;;;;;;;;18.25;17.50;;;;;;;;8718474;40;10617;-63
2021/07/16 13:04:48;;;;;;;;;42.50;38.50;;;;;;;;8754632;40;11352;-64
2021/07/16 13:11:05;;;;;;;;;20.75;20.75;;;;;;;;8749330;40;10706;-65
2021/07/16 13:17:25;;;;;;;;;14.75;14.75;;;;;;;;8758760;40;11191;-63
2021/07/16 13:23:27;;;;;;;;;42.75;38.00;;;;;;;;8746155;40;11294;-63
2021/07/16 13:29:29;;;;;;;;;22.25;19.75;;;;;;;;8742578;40;10684;-65
2021/07/16 13:35:31;;;;;;;;;19.75;18.75;;;;;;;;8738661;40;10572;-65
2021/07/16 13:41:33;;;;;;;;;13.25;11.75;;;;;;;;8749123;40;10494;-65
2021/07/16 13:47:35;;;;;;;;;19.75;19.75;;;;;;;;8749931;40;10872;-65
2021/07/16 13:53:37;;;;;;;;;19.75;19.75;;;;;;;;8740675;40;10662;-64
2021/07/16 13:59:39;;;;;;;;;17.50;17.50;;;;;;;;8749814;40;11257;-66
2021/07/16 14:05:41;;;;;;;;;13.00;13.00;;;;;;;;8750552;40;10582;-66
2021/07/16 14:11:43;;;;;;;;;22.25;20.50;;;;;;;;8749441;40;10567;-66
2021/07/16 14:17:51;;;;;;;;;15.25;15.00;;;;;;;;8770837;40;10487;-64
2021/07/16 14:23:53;;;;;;;;;18.00;15.25;;;;;;;;8773733;40;10565;-65
2021/07/16 14:29:55;;;;;;;;;12.75;11.00;;;;;;;;8775359;40;11772;-64
2021/07/16 14:35:57;;;;;;;;;13.25;13.25;;;;;;;;8763640;40;11182;-66
2021/07/16 14:42:00;;;;;;;;;15.25;13.00;;;;;;;;8773152;40;10384;-65
2021/07/16 14:48:03;;;;;;;;;17.75;13.75;;;;;;;;8773312;40;10554;-66
2021/07/16 14:54:06;;;;;;;;;15.75;13.00;;;;;;;;8772246;40;10515;-66
2021/07/16 15:00:10;;;;;;;;;16.75;14.00;;;;;;;;8773881;40;10592;-67
2021/07/16 15:06:12;;;;;;;;;17.25;17.00;;;;;;;;8772471;40;10575;-65
2021/07/16 15:12:14;;;;;;;;;13.00;12.75;;;;;;;;8772003;40;10490;-65
2021/07/16 15:18:17;;;;;;;;;11.50;11.25;;;;;;;;8622802;40;5000955;-65
2021/07/16 15:24:20;;;;;;;;;14.25;13.75;;;;;;;;8741868;40;10536;-64
2021/07/16 15:30:21;;;;;;;;;13.50;11.75;;;;;;;;8752214;40;10574;-66
2021/07/16 15:36:25;;;;;;;;;11.00;10.00;;;;;;;;8750977;40;10557;-66
2021/07/16 15:42:27;;;;;;;;;15.25;11.75;;;;;;;;8736772;40;10493;-66
2021/07/16 15:48:31;;;;;;;;;15.25;11.50;;;;;;;;8751232;40;10567;-65
2021/07/16 15:54:33;;;;;;;;;12.25;11.25;;;;;;;;8752070;40;10615;-65
2021/07/16 16:00:35;;;;;;;;;15.50;12.00;;;;;;;;8753409;40;10550;-65
2021/07/16 16:06:37;;;;;;;;;14.25;14.25;;;;;;;;8751430;40;10499;-65
2021/07/16 16:12:40;;;;;;;;;15.50;15.50;;;;;;;;8750605;40;10596;-66
2021/07/16 16:18:42;;;;;;;;;15.25;13.50;;;;;;;;8751436;40;10585;-65
2021/07/16 16:24:44;;;;;;;;;12.75;12.75;;;;;;;;8742282;40;11180;-67
2021/07/16 16:30:48;;;;;;;;;11.75;9.50;;;;;;;;8750950;40;10787;-65
2021/07/16 16:36:50;;;;;;;;;12.25;11.75;;;;;;;;8750428;40;10608;-66
2021/07/16 16:42:53;;;;;;;;;8.25;8.25;;;;;;;;8741517;40;10502;-64
2021/07/16 16:48:56;;;;;;;;;16.25;16.25;;;;;;;;8751439;40;10674;-64
2021/07/16 16:54:58;;;;;;;;;14.00;14.00;;;;;;;;8749728;40;10619;-64
2021/07/16 17:01:00;;;;;;;;;15.00;13.25;;;;;;;;8750882;40;10580;-65
2021/07/16 17:07:03;;;;;;;;;14.75;14.75;;;;;;;;8740802;40;10732;-65
2021/07/16 17:13:05;;;;;;;;;16.50;13.75;;;;;;;;8750993;40;10815;-66
2021/07/16 17:19:07;;;;;;;;;12.75;12.75;;;;;;;;8751000;40;10659;-65
2021/07/16 17:25:10;;;;;;;;;14.50;12.25;;;;;;;;8750313;40;11585;-65
2021/07/16 17:31:12;;;;;;;;;18.50;17.25;;;;;;;;8750961;40;11166;-65
2021/07/16 17:37:18;;;;;;;;;16.25;16.25;;;;;;;;8748909;40;10636;-65
2021/07/16 17:43:25;;;;;;;;;17.00;15.00;;;;;;;;8739893;40;10497;-66
2021/07/16 17:49:27;;;;;;;;;15.75;13.25;;;;;;;;8747998;40;10586;-64
2021/07/16 17:55:29;;;;;;;;;12.25;10.50;;;;;;;;8748152;40;10568;-66
2021/07/16 18:01:31;;;;;;;;;21.75;21.25;;;;;;;;8749545;40;11244;-65
2021/07/16 18:07:33;;;;;;;;;16.00;15.00;;;;;;;;8749528;40;10553;-65
2021/07/16 18:13:35;;;;;;;;;26.00;24.50;;;;;;;;8748906;40;10571;-65
2021/07/16 18:19:37;;;;;;;;;16.25;14.50;;;;;;;;8748974;40;11107;-65
2021/07/16 18:25:40;;;;;;;;;12.50;12.00;;;;;;;;8747752;40;10609;-65
2021/07/16 18:31:42;;;;;;;;;15.25;12.50;;;;;;;;8750412;40;10715;-65
2021/07/16 18:37:44;;;;;;;;;13.00;10.50;;;;;;;;8747683;40;10616;-64
2021/07/16 18:43:49;;;;;;;;;17.25;16.50;;;;;;;;8747775;40;10578;-65
2021/07/16 18:49:51;;;;;;;;;17.00;12.50;;;;;;;;8739178;40;10943;-66
2021/07/16 18:55:55;;;;;;;;;18.00;14.00;;;;;;;;8747333;40;10600;-65
2021/07/16 19:01:57;;;;;;;;;15.75;15.75;;;;;;;;8751620;40;10666;-65
2021/07/16 19:08:04;;;;;;;;;22.50;20.00;;;;;;;;8750476;40;10630;-66
2021/07/16 19:14:06;;;;;;;;;13.50;12.50;;;;;;;;8752225;40;10654;-65
2021/07/16 19:20:08;;;;;;;;;14.75;12.75;;;;;;;;8751176;40;10738;-65
2021/07/16 19:26:11;;;;;;;;;16.75;13.75;;;;;;;;8750893;40;10600;-65
2021/07/16 19:32:13;;;;;;;;;11.00;9.25;;;;;;;;8752437;40;11120;-64
2021/07/16 19:38:15;;;;;;;;;25.25;23.75;;;;;;;;8741075;40;10707;-65
2021/07/16 19:44:17;;;;;;;;;20.75;15.50;;;;;;;;8752878;40;10535;-65
2021/07/16 19:50:19;;;;;;;;;14.25;12.50;;;;;;;;8752309;40;11186;-65
2021/07/16 19:56:21;;;;;;;;;16.50;13.75;;;;;;;;8751948;40;11716;-65
2021/07/16 20:02:24;;;;;;;;;17.75;17.75;;;;;;;;8742704;40;10642;-65
2021/07/16 20:08:26;;;;;;;;;15.75;13.25;;;;;;;;8750119;40;10772;-65
2021/07/16 20:14:30;;;;;;;;;14.25;13.00;;;;;;;;8741909;40;10539;-65
2021/07/16 20:20:32;;;;;;;;;13.25;12.50;;;;;;;;8743150;40;10544;-64
2021/07/16 20:26:38;;;;;;;;;16.00;12.25;;;;;;;;8741162;40;11158;-65
2021/07/16 20:32:40;;;;;;;;;13.75;13.75;;;;;;;;8749737;40;11249;-65
2021/07/16 20:38:45;;;;;;;;;14.50;11.50;;;;;;;;8751840;40;10570;-65
2021/07/16 20:44:47;;;;;;;;;11.75;11.00;;;;;;;;8751783;40;11395;-65
2021/07/16 20:50:49;;;;;;;;;11.00;9.50;;;;;;;;8741530;40;11406;-64
2021/07/16 20:56:51;;;;;;;;;10.00;9.00;;;;;;;;8749625;40;10479;-64
2021/07/16 21:02:53;;;;;;;;;14.50;11.75;;;;;;;;8751388;40;10559;-65
2021/07/16 21:08:56;;;;;;;;;12.25;12.25;;;;;;;;8750741;40;10580;-65
2021/07/16 21:14:58;;;;;;;;;10.00;8.00;;;;;;;;8741305;40;10623;-64
2021/07/16 21:21:01;;;;;;;;;11.00;8.25;;;;;;;;8750264;40;10586;-64
2021/07/16 21:27:05;;;;;;;;;12.00;10.75;;;;;;;;8749151;40;10818;-64
2021/07/16 21:33:10;;;;;;;;;10.50;10.25;;;;;;;;8751097;40;10567;-64
2021/07/16 21:39:12;;;;;;;;;10.25;10.25;;;;;;;;8750751;40;10646;-64
2021/07/16 21:45:14;;;;;;;;;9.50;7.50;;;;;;;;8750149;40;10401;-65
2021/07/16 21:51:16;;;;;;;;;7.75;7.75;;;;;;;;8739733;40;10641;-65
2021/07/16 21:57:18;;;;;;;;;10.00;9.50;;;;;;;;8750662;40;10901;-63
2021/07/16 22:03:20;;;;;;;;;12.25;9.75;;;;;;;;8750210;40;10571;-64
2021/07/16 22:09:22;;;;;;;;;9.75;9.75;;;;;;;;8750264;40;10607;-65
2021/07/16 22:15:24;;;;;;;;;12.00;12.00;;;;;;;;8751516;40;10561;-64
2021/07/16 22:21:26;;;;;;;;;11.50;9.75;;;;;;;;8749107;40;10627;-65
2021/07/16 22:27:29;;;;;;;;;9.75;8.00;;;;;;;;8749544;40;10643;-64
2021/07/16 22:33:33;;;;;;;;;12.50;11.75;;;;;;;;8750899;40;10692;-64
2021/07/16 22:39:36;;;;;;;;;13.50;11.25;;;;;;;;8752877;40;10635;-64
2021/07/16 22:45:38;;;;;;;;;12.00;11.00;;;;;;;;8752472;40;10589;-65
2021/07/16 22:51:40;;;;;;;;;10.25;9.25;;;;;;;;8752053;40;10610;-64
2021/07/16 22:57:43;;;;;;;;;15.00;12.75;;;;;;;;8742744;40;10576;-65
2021/07/16 23:03:44;;;;;;;;;14.00;12.50;;;;;;;;8752841;40;10730;-65
2021/07/16 23:09:47;;;;;;;;;12.75;12.50;;;;;;;;8749593;40;10689;-63
2021/07/16 23:15:50;;;;;;;;;12.00;12.00;;;;;;;;8749856;40;10766;-65
2021/07/16 23:21:51;;;;;;;;;13.50;12.50;;;;;;;;8749309;40;10833;-65
2021/07/16 23:27:54;;;;;;;;;15.75;13.00;;;;;;;;8749109;40;10942;-63
2021/07/16 23:33:56;;;;;;;;;14.50;14.50;;;;;;;;8749554;40;10752;-64
2021/07/16 23:39:58;;;;;;;;;16.00;12.75;;;;;;;;8748564;40;10750;-64
2021/07/16 23:46:01;;;;;;;;;13.50;13.50;;;;;;;;8749293;40;10812;-65
2021/07/16 23:52:04;;;;;;;;;16.50;15.00;;;;;;;;8748735;40;10901;-64
2021/07/16 23:58:06;;;;;;;;;12.00;12.00;;;;;;;;8749955;40;10717;-64
